Home > Products > Valid Products > MTR

000
SAUS43 KMQT 282157
MTRP53
METAR KP53 282156Z AUTO 34005KT 19/10 A3002 RMK AO1 SLP167 T01890100





000
SAUS43 KMQT 282154
MTRP59
METAR KP59 282151Z AUTO 34013G20KT 19/11 A3000 RMK AO1 SLP159
T01940106





000
SAUS43 KMQT 282057
MTRP53
METAR KP53 282056Z AUTO 31006KT 19/10 A3003 RMK AO1 SLP170 T01940100
58007





000
SAUS43 KMQT 282052
MTRP59
METAR KP59 282051Z AUTO 35010KT 19/12 A3001 RMK AO1 SLP162 T01940117
56009





000
SAUS43 KMQT 281957
MTRP53
METAR KP53 281956Z AUTO 32009KT 18/08 A3004 RMK AO1 SLP175 T01830083





000
SAUS43 KMQT 281953
MTRP59
METAR KP59 281951Z AUTO 35011KT 19/13 A3002 RMK AO1 SLP165 T01890128





000
SAUS43 KMQT 281857
MTRP53
METAR KP53 281856Z AUTO 33007KT 18/07 A3004 RMK AO1 SLP175 T01830072





000
SAUS43 KMQT 281852
MTRP59
METAR KP59 281851Z AUTO 35010KT 19/12 A3003 RMK AO1 SLP167 T01890122





000
SAUS43 KMQT 281757
MTRP53
METAR KP53 281756Z AUTO 07005KT 18/07 A3005 RMK AO1 SLP177 T01780067
10178 20111 58009





000
SAUS43 KMQT 281752
MTRP59
METAR KP59 281751Z AUTO 36012KT 18/12 A3004 RMK AO1 SLP173 T01780122
10178 20122 58007





000
SAUS43 KMQT 281657
MTRP53
METAR KP53 281656Z AUTO 06003KT 17/07 A3006 RMK AO1 SLP181 T01720072





000
SAUS43 KMQT 281653
MTRP59
METAR KP59 281651Z AUTO 36009KT 17/11 A3006 RMK AO1 SLP177 T01720111





000
SAUS43 KMQT 281557
MTRP53
METAR KP53 281556Z AUTO 35006KT 16/07 A3007 RMK AO1 SLP185 T01610072





000
SAUS43 KMQT 281552
MTRP59
METAR KP59 281551Z AUTO 35012KT 17/12 A3007 RMK AO1 SLP180 T01720117





000
SAUS43 KMQT 281457
MTRP53
METAR KP53 281456Z AUTO 33007KT 15/08 A3008 RMK AO1 SLP187 T01500078
51008





000
SAUS43 KMQT 281453
MTRP59
METAR KP59 281451Z AUTO 35013KT 16/11 A3007 RMK AO1 SLP180 T01560111
53003





000
SAUS43 KMQT 281357
MTRP53
METAR KP53 281356Z AUTO 33008KT 13/08 A3008 RMK AO1 SLP186 T01330078





000
SAUS43 KMQT 281353
MTRP59
METAR KP59 281351Z AUTO 34009KT 16/11 A3005 RMK AO1 SLP177 T01610106





000
SAUS43 KMQT 281257
MTRP53
METAR KP53 281256Z AUTO 34005KT 12/08 A3007 RMK AO1 SLP183 T01220078





000
SAUS43 KMQT 281254
MTRP59
METAR KP59 281251Z AUTO 00000KT 14/09 A3005 RMK AO1 SLP176 T01440089





000
SAUS43 KMQT 281157
MTRP53
METAR KP53 281156Z AUTO 00000KT 11/07 A3005 RMK AO1 SLP179 70027
T01110072 10128 20094 51015





000
SAUS43 KMQT 281154
MTRP59
METAR KP59 281151Z AUTO 00000KT 12/08 A3006 RMK AO1 SLP178 70035
T01220083 10122 20089 53003





000
SAUS43 KMQT 281057
MTRP53
METAR KP53 281056Z AUTO 32007KT 11/07 A3004 RMK AO1 SLP176 T01110072





000
SAUS43 KMQT 281054
MTRP59
METAR KP59 281051Z AUTO 26005KT 12/09 A3005 RMK AO1 SLP176 T01170089





000
SAUS43 KMQT 280957
MTRP53
METAR KP53 280956Z AUTO 33010KT 11/07 A3002 RMK AO1 SLP169 T01110067





000
SAUS43 KMQT 280954
MTRP59
METAR KP59 280951Z AUTO 24004KT 12/08 A3005 RMK AO1 SLP176 T01170083





000
SAUS43 KMQT 280857
MTRP53
METAR KP53 280856Z AUTO 33012KT 11/07 A3001 RMK AO1 SLP163 T01110067
53004





000
SAUS43 KMQT 280854
MTRP59
METAR KP59 280851Z AUTO 24003KT 11/08 A3005 RMK AO1 SLP175 T01110078
53001





000
SAUS43 KMQT 280757
MTRP53
METAR KP53 280756Z AUTO 01016KT 12/07 A3000 RMK AO1 SLP161 T01220072





000
SAUS43 KMQT 280753
MTRP59
METAR KP59 280751Z AUTO 26004KT 10/08 A3004 RMK AO1 SLP174 T01000078





000
SAUS43 KMQT 280657
MTRP53
METAR KP53 280656Z AUTO 01016KT 12/08 A3000 RMK AO1 SLP160 T01220078





000
SAUS43 KMQT 280654
MTRP59
METAR KP59 280651Z AUTO 26004KT 09/07 A3004 RMK AO1 SLP175 T00940072





000
SAUS43 KMQT 280557
MTRP53
METAR KP53 280556Z AUTO 05015KT 12/08 A2999 RMK AO1 SLP159 T01170078
10161 20117 51012





000
SAUS43 KMQT 280553
MTRP59
METAR KP59 280551Z AUTO 00000KT 10/08 A3005 RMK AO1 SLP176 T01000078
10133 20100 51010





000
SAUS43 KMQT 280457
MTRP53
METAR KP53 280456Z AUTO 04019KT 12/08 A2999 RMK AO1 SLP157 T01220078
401610117





000
SAUS43 KMQT 280454
MTRP59
METAR KP59 280451Z AUTO 03003KT 12/07 A3004 RMK AO1 SLP175 T01170072
401610106





000
SAUS43 KMQT 280357
MTRP53
METAR KP53 280356Z AUTO 04013KT 12/08 A2998 RMK AO1 SLP153 T01220083





000
SAUS43 KMQT 280353
MTRP59
METAR KP59 280351Z AUTO 35009KT 12/09 A3003 RMK AO1 SLP168 T01220089





000
SAUS43 KMQT 280257
MTRP53
METAR KP53 280256Z AUTO 03016KT 12/08 A2996 RMK AO1 SLP147 T01220083
53024





000
SAUS43 KMQT 280252
MTRP59
METAR KP59 280251Z AUTO 01005KT 11/08 A3002 RMK AO1 SLP165 T01110078
51019





000
SAUS43 KMQT 280157
MTRP53
METAR KP53 280156Z AUTO 03016KT 16/09 A2993 RMK AO1 SLP137 T01560094





000
SAUS43 KMQT 280153
MTRP59
METAR KP59 280151Z AUTO 01006KT 12/08 A3001 RMK AO1 SLP161 T01170078





000
SAUS43 KMQT 280058
MTRP53
METAR KP53 280056Z AUTO 36015KT 15/09 A2990 RMK AO1 WSHFT 0001
SLP127 T01500089





000
SAUS43 KMQT 280053
MTRP59
METAR KP59 280051Z AUTO 05008KT 12/08 A2998 RMK AO1 SLP152 T01220078





000
SAUS43 KMQT 280022
MTRP53
SPECI KP53 280021Z AUTO 36014KT 15/09 A2989 RMK AO1 WSHFT 0001
T01500089





000
SAUS43 KMQT 272357
MTRP53
METAR KP53 272356Z AUTO 00000KT 16/09 A2989 RMK AO1 SLP121 T01560089
10156 20122 53016





000
SAUS43 KMQT 272352
MTRP59
METAR KP59 272351Z AUTO 03010KT 13/08 A2996 RMK AO1 SLP145 T01330083
10156 20117 51020





000
SAUS43 KMQT 272257
MTRP53
METAR KP53 272256Z AUTO 33008G16KT 14/09 A2986 RMK AO1 SLP112
T01390094





000
SAUS43 KMQT 272254
MTRP59
METAR KP59 272251Z AUTO 01011KT 13/09 A2994 RMK AO1 SLP139 T01330089





000
SAUS43 KMQT 272157
MTRP53
METAR KP53 272156Z AUTO 32012KT 14/11 A2985 RMK AO1 SLP109 T01390106





000
SAUS43 KMQT 272152
MTRP59
METAR KP59 272151Z AUTO 01012KT 14/10 A2992 RMK AO1 SLP132 T01390100





000
SAUS43 KMQT 272057
MTRP53
METAR KP53 272056Z AUTO 03010KT 13/11 A2984 RMK AO1 SLP105 T01330106
52020





000
SAUS43 KMQT 272053
MTRP59
METAR KP59 272051Z AUTO 01012KT 16/11 A2990 RMK AO1 SLP124 T01560106
51011





000
SAUS43 KMQT 271957
MTRP53
METAR KP53 271956Z AUTO 02013KT 13/10 A2982 RMK AO1 SLP099 T01330100





000
SAUS43 KMQT 271954
MTRP59
METAR KP59 271951Z AUTO 02011KT 15/11 A2989 RMK AO1 SLP119 T01500106





000
SAUS43 KMQT 271857
MTRP53
METAR KP53 271856Z AUTO 03014KT 13/11 A2980 RMK AO1 SLP092 T01280111





000
SAUS43 KMQT 271853
MTRP59
METAR KP59 271851Z AUTO 36004KT 12/09 A2988 RMK AO1 SLP119 T01220094





000
SAUS43 KMQT 271757
MTRP53
METAR KP53 271756Z AUTO 36009KT 12/11 A2978 RMK AO1 SLP086 60027
T01220111 10156 20122 51020





000
SAUS43 KMQT 271753
MTRP59
METAR KP59 271751Z AUTO 06007KT 12/09 A2987 RMK AO1 SLP113 60035
T01170089 10128 20111 52024





000
SAUS43 KMQT 271657
MTRP53
METAR KP53 271656Z AUTO 33009KT 13/11 A2976 RMK AO1 SLP079 P0005
T01280111





000
SAUS43 KMQT 271653
MTRP59
METAR KP59 271651Z AUTO 00000KT 12/09 A2984 RMK AO1 SLP106 T01170094





000
SAUS43 KMQT 271557
MTRP53
METAR KP53 271556Z AUTO 07005KT 13/12 A2974 RMK AO1 SLP074 P0022
T01330122





000
SAUS43 KMQT 271552
MTRP59
METAR KP59 271551Z AUTO VRB04KT 12/10 A2982 RMK AO1 SLP097 P0013
T01170100





000
SAUS43 KMQT 271457
MTRP53
METAR KP53 271456Z AUTO 03006KT 14/12 A2972 RMK AO1 SLP065 T01390122
53013





000
SAUS43 KMQT 271453
MTRP59
METAR KP59 271451Z AUTO 09003KT 12/11 A2979 RMK AO1 SLP090 P0022
60022 T01170106 53025





000
SAUS43 KMQT 271357
MTRP53
METAR KP53 271356Z AUTO 04005KT 16/13 A2970 RMK AO1 SLP057 T01560128





000
SAUS43 KMQT 271354
MTRP59
METAR KP59 271351Z AUTO 00000KT 12/11 A2976 RMK AO1 SLP077 T01220111





000
SAUS43 KMQT 271257
MTRP53
METAR KP53 271256Z AUTO 02005KT 14/13 A2969 RMK AO1 SLP055 T01440128





000
SAUS43 KMQT 271253
MTRP59
METAR KP59 271251Z AUTO 00000KT 12/11 A2974 RMK AO1 SLP070 T01220111





000
SAUS43 KMQT 271157
MTRP53
METAR KP53 271156Z AUTO 35003KT 14/12 A2968 RMK AO1 SLP050 60020
70022 T01440122 10150 20128 55022





000
SAUS43 KMQT 271154
MTRP59
METAR KP59 271151Z AUTO 09004KT 12/11 A2972 RMK AO1 SLP063 60023
70024 T01220111 10150 20117 53001





000
SAUS43 KMQT 271057
MTRP53
METAR KP53 271056Z AUTO 04009KT 13/12 A2968 RMK AO1 SLP049 T01330122





000
SAUS43 KMQT 271054
MTRP59
METAR KP59 271051Z AUTO VRB03KT 12/11 A2971 RMK AO1 SLP056 T01220111





000
SAUS43 KMQT 270957
MTRP53
METAR KP53 270956Z AUTO 03009KT 14/13 A2971 RMK AO1 SLP060 P0020
T01440128





000
SAUS43 KMQT 270952
MTRP59
METAR KP59 270951Z AUTO VRB03KT 13/12 A2970 RMK AO1 SLP055 P0001
T01280117





000
SAUS43 KMQT 270857
MTRP53
METAR KP53 270856Z AUTO 34009KT 15/13 A2975 RMK AO1 PRESRR SLP072
T01500128 53006





000
SAUS43 KMQT 270853
MTRP59
METAR KP59 270851Z AUTO 00000KT 12/11 A2971 RMK AO1 SLP059 P0012
60022 T01170111 58001





000
SAUS43 KMQT 270757
MTRP53
METAR KP53 270756Z AUTO 36005KT 14/12 A2974 RMK AO1 PRESRR SLP068
T01440122





000
SAUS43 KMQT 270753
MTRP59
METAR KP59 270751Z AUTO 09004KT 13/12 A2975 RMK AO1 SLP070 P0010
T01280117





000
SAUS43 KMQT 270657
MTRP53
METAR KP53 270656Z AUTO 19003KT 13/11 A2973 RMK AO1 SLP068 T01280111





000
SAUS43 KMQT 270654
MTRP59
METAR KP59 270651Z AUTO 27003KT 14/13 A2977 RMK AO1 SLP078 T01440128





000
SAUS43 KMQT 270557
MTRP53
METAR KP53 270556Z AUTO 18004KT 13/12 A2973 RMK AO1 SLP066 T01280117
10194 20122 58012





000
SAUS43 KMQT 270554
MTRP59
METAR KP59 270551Z AUTO 25005KT 15/13 A2972 RMK AO1 SLP061 T01500133
10161 20111 55012





000
SAUS43 KMQT 270457
MTRP53
METAR KP53 270456Z AUTO 00000KT 13/11 A2975 RMK AO1 SLP073 T01280111
402500122





000
SAUS43 KMQT 270454
MTRP59
METAR KP59 270451Z AUTO 00000KT 13/12 A2971 RMK AO1 SLP059 T01330117
402220111





000
SAUS43 KMQT 270357
MTRP53
METAR KP53 270356Z AUTO 00000KT 13/12 A2976 RMK AO1 SLP078 T01280117





000
SAUS43 KMQT 270354
MTRP59
METAR KP59 270351Z AUTO 15003KT 13/12 A2975 RMK AO1 SLP069 T01330117





000
SAUS43 KMQT 270257
MTRP53
METAR KP53 270256Z AUTO 00000KT 13/12 A2976 RMK AO1 SLP079 T01280117
50013





000
SAUS43 KMQT 270254
MTRP59
METAR KP59 270251Z AUTO 00000KT 12/11 A2976 RMK AO1 SLP073 T01170106
53003





000
SAUS43 KMQT 270157
MTRP53
METAR KP53 270156Z AUTO 04012KT 14/12 A2977 RMK AO1 SLP080 T01390122





000
SAUS43 KMQT 270154
MTRP59
METAR KP59 270151Z AUTO 25004KT 14/11 A2974 RMK AO1 SLP067 T01390111





000
SAUS43 KMQT 270057
MTRP53
METAR KP53 270056Z AUTO 03009KT 16/13 A2974 RMK AO1 SLP071 T01560133





000
SAUS43 KMQT 270053
MTRP59
METAR KP59 270051Z AUTO 08003KT 13/10 A2974 RMK AO1 SLP068 T01280100





000
SAUS43 KMQT 262358
MTRP53
METAR KP53 262356Z AUTO 33004KT 19/14 A2972 RMK AO1 SLP065 60002
T01940144 10250 20194 56003





000
SAUS43 KMQT 262354
MTRP59
METAR KP59 262351Z AUTO 08005KT 12/09 A2975 RMK AO1 SLP071 T01220094
10206 20122 51014





000
SAUS43 KMQT 262257
MTRP53
METAR KP53 262256Z AUTO 00000KT 20/15 A2973 RMK AO1 SLP065 T02000150





000
SAUS43 KMQT 262253
MTRP59
METAR KP59 262251Z AUTO 34013KT 20/12 A2973 RMK AO1 SLP062 T02000122





000
SAUS43 KMQT 262157
MTRP53
METAR KP53 262156Z AUTO 35006KT 22/16 A2973 RMK AO1 SLP064 T02170156





000
SAUS43 KMQT 262154
MTRP59
METAR KP59 262151Z AUTO 01012KT 18/13 A2972 RMK AO1 SLP060 T01830128





000
SAUS43 KMQT 262057
MTRP53
METAR KP53 262056Z AUTO 33011KT 22/17 A2973 RMK AO1 SLP066 60002
T02220167 51016





000
SAUS43 KMQT 262052
MTRP59
METAR KP59 262051Z AUTO 35016KT 20/14 A2971 RMK AO1 SLP053 T02000144
50001





000
SAUS43 KMQT 261957
MTRP53
METAR KP53 261956Z AUTO 33010KT 23/17 A2973 RMK AO1 SLP064 T02280172





000
SAUS43 KMQT 261954
MTRP59
METAR KP59 261951Z AUTO 35014KT 19/16 A2973 RMK AO1 SLP060 T01940156





000
SAUS43 KMQT 261857
MTRP53
METAR KP53 261856Z AUTO 24003KT 23/20 A2972 RMK AO1 SLP064 P0002
T02280200





000
SAUS43 KMQT 261854
MTRP59
METAR KP59 261851Z AUTO 34008KT 20/16 A2971 RMK AO1 SLP056 T02000161





000
SAUS43 KMQT 261757
MTRP53
METAR KP53 261756Z AUTO 20006KT 24/18 A2969 RMK AO1 SLP051 T02440183
10250 20189 58013





000
SAUS43 KMQT 261754
MTRP59
METAR KP59 261751Z AUTO 36013KT 17/14 A2970 RMK AO1 SLP054 60001
T01670139 10222 20139 53003





000
SAUS43 KMQT 261657
MTRP53
METAR KP53 261656Z AUTO 19010KT 22/18 A2972 RMK AO1 SLP062 T02170178





000
SAUS43 KMQT 261654
MTRP59
METAR KP59 261651Z AUTO 36015KT 15/13 A2970 RMK AO1 PK WND
35027/1622 SLP056 T01500133





000
SAUS43 KMQT 261557
MTRP53
METAR KP53 261556Z AUTO 21008KT 21/18 A2973 RMK AO1 SLP065 T02110178





000
SAUS43 KMQT 261552
MTRP59
METAR KP59 261551Z AUTO 32007KT 22/19 A2969 RMK AO1 SLP047 T02170189





000
SAUS43 KMQT 261457
MTRP53
METAR KP53 261456Z AUTO 20007KT 22/18 A2972 RMK AO1 SLP065 T02170178
58010





000
SAUS43 KMQT 261453
MTRP59
METAR KP59 261451Z AUTO 20/18 A2969 RMK AO1 SLP049 60001 T02000183
55004





000
SAUS43 KMQT 261357
MTRP53
METAR KP53 261356Z AUTO 22007KT 21/18 A2974 RMK AO1 SLP068 T02060178





000
SAUS43 KMQT 261354
MTRP59
METAR KP59 261351Z AUTO 26007KT 19/18 A2969 RMK AO1 SLP047 T01940178





000
SAUS43 KMQT 261257
MTRP53
METAR KP53 261256Z AUTO 19007KT 19/17 A2975 RMK AO1 SLP073 T01940167





000
SAUS43 KMQT 261253
MTRP59
METAR KP59 261251Z AUTO 24007KT 18/17 A2969 RMK AO1 SLP050 P0001
T01830167





000
SAUS43 KMQT 261157
MTRP53
METAR KP53 261156Z AUTO 20008KT 19/17 A2976 RMK AO1 SLP075 P0002
60002 70002 T01890167 10189 20183 55006





000
SAUS43 KMQT 261154
MTRP59
METAR KP59 261151Z AUTO 24008KT 17/16 A2971 RMK AO1 SLP055 60004
70013 T01720156 10194 20172 56012





000
SAUS43 KMQT 261057
MTRP53
METAR KP53 261056Z AUTO 19006KT 19/16 A2975 RMK AO1 SLP074 T01890161





000
SAUS43 KMQT 261053
MTRP59
METAR KP59 261051Z AUTO VRB04KT 18/17 A2971 RMK AO1 SLP057 P0004
T01830172





000
SAUS43 KMQT 260957
MTRP53
METAR KP53 260956Z AUTO 20006KT 19/16 A2976 RMK AO1 SLP077 T01890161





000
SAUS43 KMQT 260953
MTRP59
METAR KP59 260951Z AUTO VRB04KT 19/17 A2972 RMK AO1 SLP061 T01890172





000
SAUS43 KMQT 260857
MTRP53
METAR KP53 260856Z AUTO 21006KT 19/16 A2977 RMK AO1 SLP081 T01890156
56007





000
SAUS43 KMQT 260854
MTRP59
METAR KP59 260851Z AUTO 00000KT 19/17 A2974 RMK AO1 SLP065 T01940172
56009





000
SAUS43 KMQT 260757
MTRP53
METAR KP53 260756Z AUTO 21005KT 19/16 A2978 RMK AO1 SLP084 T01890156





000
SAUS43 KMQT 260752
MTRP59
METAR KP59 260751Z AUTO 00000KT 19/17 A2974 RMK AO1 SLP066 T01890167





000
SAUS43 KMQT 260657
MTRP53
METAR KP53 260656Z AUTO 20006KT 19/15 A2978 RMK AO1 SLP083 T01890150





000
SAUS43 KMQT 260653
MTRP59
METAR KP59 260651Z AUTO 00000KT 18/16 A2976 RMK AO1 SLP071 T01830161





000
SAUS43 KMQT 260557
MTRP53
METAR KP53 260556Z AUTO 21006KT 18/15 A2980 RMK AO1 SLP088 T01830150
10217 20178 55001





000
SAUS43 KMQT 260553
MTRP59
METAR KP59 260551Z AUTO 00000KT 18/16 A2977 RMK AO1 SLP075 60002
T01780156 10194 20172 56002





000
SAUS43 KMQT 260457
MTRP53
METAR KP53 260456Z AUTO 20006KT 18/14 A2979 RMK AO1 SLP086 T01780144
402670150





000
SAUS43 KMQT 260452
MTRP59
METAR KP59 260451Z AUTO 00000KT 18/16 A2977 RMK AO1 SLP074 T01780156
402390156





000
SAUS43 KMQT 260357
MTRP53
METAR KP53 260356Z AUTO 21008KT 18/14 A2979 RMK AO1 SLP088 T01830144





000
SAUS43 KMQT 260353
MTRP59
METAR KP59 260351Z AUTO 00000KT 18/16 A2977 RMK AO1 SLP074 T01780156





000
SAUS43 KMQT 260257
MTRP53
METAR KP53 260256Z AUTO 20007KT 18/14 A2980 RMK AO1 SLP089 T01830144
58006





000
SAUS43 KMQT 260252
MTRP59
METAR KP59 260251Z AUTO 00000KT 18/16 A2977 RMK AO1 SLP075 60002
T01830161 55001





000
SAUS43 KMQT 260157
MTRP53
METAR KP53 260156Z AUTO 20007KT 18/15 A2981 RMK AO1 SLP092 T01830150





000
SAUS43 KMQT 260153
MTRP59
METAR KP59 260151Z AUTO 00000KT 19/17 A2977 RMK AO1 SLP074 T01890167





000
SAUS43 KMQT 260057
MTRP53
METAR KP53 260056Z AUTO 19005KT 19/15 A2981 RMK AO1 SLP094 T01940150





000
SAUS43 KMQT 260054
MTRP59
METAR KP59 260051Z AUTO 00000KT 19/17 A2976 RMK AO1 SLP071 P0002
T01890172





000
SAUS43 KMQT 252357
MTRP53
METAR KP53 252356Z AUTO 20008G15KT 22/13 A2982 RMK AO1 SLP095
T02170128 10267 20217 56004





000
SAUS43 KMQT 252352
MTRP59
METAR KP59 252351Z AUTO 21004KT 18/17 A2977 RMK AO1 SLP077 P0001
60007 T01830167 10217 20178 58010





000
SAUS43 KMQT 252257
MTRP53
METAR KP53 252256Z AUTO 21008G17KT 23/13 A2982 RMK AO1 SLP097
T02280128





000
SAUS43 KMQT 252253
MTRP59
METAR KP59 252251Z AUTO 00000KT 19/17 A2979 RMK AO1 SLP084 T01940167





    US Dept of Commerce
    National Oceanic and Atmospheric Administration
    National Weather Service
    1325 East West Highway
    Silver Spring, MD 20910
    Page Author: NWS Internet Services Team
Disclaimer
Information Quality
Credits
Glossary
Privacy Policy
Freedom of Information Act (FOIA)
About Us
Career Opportunities